sensor_id;sensor_type;location;lat;lon;timestamp;P1;durP1;ratioP1;P2;durP2;ratioP2
41546;SDS011;27271;45.412;10.852;2024-01-10T05:01:54;19.75;;;9.05;;
41546;SDS011;27271;45.412;10.852;2024-01-10T05:05:16;20.08;;;9.73;;
41546;SDS011;27271;45.412;10.852;2024-01-10T05:08:46;25.95;;;10.13;;
41546;SDS011;27271;45.412;10.852;2024-01-10T05:12:08;18.90;;;8.13;;
41546;SDS011;27271;45.412;10.852;2024-01-10T05:15:30;23.20;;;8.90;;
41546;SDS011;27271;45.412;10.852;2024-01-10T05:18:52;27.73;;;8.38;;
41546;SDS011;27271;45.412;10.852;2024-01-10T05:22:14;18.25;;;9.55;;
41546;SDS011;27271;45.412;10.852;2024-01-10T05:25:37;21.58;;;7.90;;
41546;SDS011;27271;45.412;10.852;2024-01-10T05:29:00;24.90;;;8.50;;
41546;SDS011;27271;45.412;10.852;2024-01-10T05:32:22;19.77;;;7.65;;
41546;SDS011;27271;45.412;10.852;2024-01-10T05:35:47;22.58;;;8.43;;
41546;SDS011;27271;45.412;10.852;2024-01-10T05:39:10;24.45;;;9.32;;
41546;SDS011;27271;45.412;10.852;2024-01-10T05:42:32;21.15;;;9.18;;
41546;SDS011;27271;45.412;10.852;2024-01-10T05:46:02;21.83;;;8.88;;
41546;SDS011;27271;45.412;10.852;2024-01-10T05:49:28;22.83;;;8.85;;
41546;SDS011;27271;45.412;10.852;2024-01-10T05:52:54;19.67;;;8.68;;
41546;SDS011;27271;45.412;10.852;2024-01-10T05:56:19;24.42;;;9.90;;
41546;SDS011;27271;45.412;10.852;2024-01-10T05:59:41;20.85;;;9.45;;
41546;SDS011;27271;45.412;10.852;2024-01-10T06:03:04;21.10;;;8.90;;
41546;SDS011;27271;45.412;10.852;2024-01-10T06:06:27;23.08;;;9.50;;
41546;SDS011;27271;45.412;10.852;2024-01-10T06:09:50;29.30;;;10.00;;
41546;SDS011;27271;45.412;10.852;2024-01-10T06:13:12;21.88;;;9.18;;
41546;SDS011;27271;45.412;10.852;2024-01-10T06:16:34;18.45;;;9.35;;
41546;SDS011;27271;45.412;10.852;2024-01-10T06:19:57;20.08;;;9.00;;
41546;SDS011;27271;45.412;10.852;2024-01-10T06:23:21;26.80;;;10.38;;
41546;SDS011;27271;45.412;10.852;2024-01-10T06:26:44;74.75;;;30.60;;
41546;SDS011;27271;45.412;10.852;2024-01-10T06:30:08;71.50;;;23.67;;
41546;SDS011;27271;45.412;10.852;2024-01-10T06:33:31;30.40;;;13.05;;
41546;SDS011;27271;45.412;10.852;2024-01-10T06:36:55;26.45;;;13.73;;
41546;SDS011;27271;45.412;10.852;2024-01-10T06:40:20;23.63;;;10.13;;
41546;SDS011;27271;45.412;10.852;2024-01-10T06:43:43;21.10;;;10.00;;
41546;SDS011;27271;45.412;10.852;2024-01-10T06:47:06;29.05;;;12.13;;
41546;SDS011;27271;45.412;10.852;2024-01-10T06:50:30;21.38;;;9.95;;
41546;SDS011;27271;45.412;10.852;2024-01-10T06:53:52;20.73;;;10.55;;
41546;SDS011;27271;45.412;10.852;2024-01-10T06:57:24;26.75;;;10.50;;
41546;SDS011;27271;45.412;10.852;2024-01-10T07:00:46;32.50;;;11.63;;
41546;SDS011;27271;45.412;10.852;2024-01-10T07:04:09;24.38;;;10.85;;
41546;SDS011;27271;45.412;10.852;2024-01-10T07:07:31;31.08;;;11.80;;
41546;SDS011;27271;45.412;10.852;2024-01-10T07:10:53;49.47;;;16.38;;
41546;SDS011;27271;45.412;10.852;2024-01-10T07:14:18;102.40;;;35.15;;
41546;SDS011;27271;45.412;10.852;2024-01-10T07:17:44;594.40;;;212.60;;
41546;SDS011;27271;45.412;10.852;2024-01-10T07:21:06;531.03;;;168.10;;
41546;SDS011;27271;45.412;10.852;2024-01-10T07:24:30;85.65;;;30.40;;
41546;SDS011;27271;45.412;10.852;2024-01-10T07:27:53;105.63;;;39.13;;
41546;SDS011;27271;45.412;10.852;2024-01-10T07:31:15;38.63;;;15.00;;
41546;SDS011;27271;45.412;10.852;2024-01-10T07:34:37;128.30;;;51.55;;
41546;SDS011;27271;45.412;10.852;2024-01-10T07:38:04;40.75;;;17.17;;
41546;SDS011;27271;45.412;10.852;2024-01-10T07:41:30;32.58;;;13.82;;
41546;SDS011;27271;45.412;10.852;2024-01-10T07:44:52;35.42;;;12.55;;
41546;SDS011;27271;45.412;10.852;2024-01-10T07:48:15;29.92;;;12.02;;
41546;SDS011;27271;45.412;10.852;2024-01-10T07:51:37;34.78;;;11.77;;
41546;SDS011;27271;45.412;10.852;2024-01-10T07:55:00;34.35;;;13.05;;
41546;SDS011;27271;45.412;10.852;2024-01-10T07:58:22;28.38;;;12.05;;
41546;SDS011;27271;45.412;10.852;2024-01-10T08:01:53;30.23;;;12.35;;
41546;SDS011;27271;45.412;10.852;2024-01-10T08:05:18;33.72;;;11.80;;
41546;SDS011;27271;45.412;10.852;2024-01-10T08:08:42;28.83;;;11.85;;
41546;SDS011;27271;45.412;10.852;2024-01-10T08:12:05;34.60;;;12.48;;
41546;SDS011;27271;45.412;10.852;2024-01-10T08:15:27;32.83;;;13.38;;
41546;SDS011;27271;45.412;10.852;2024-01-10T08:19:04;39.58;;;13.48;;
41546;SDS011;27271;45.412;10.852;2024-01-10T08:22:27;39.13;;;13.75;;
41546;SDS011;27271;45.412;10.852;2024-01-10T08:25:49;34.95;;;13.15;;
41546;SDS011;27271;45.412;10.852;2024-01-10T08:29:11;37.83;;;12.75;;
41546;SDS011;27271;45.412;10.852;2024-01-10T08:32:34;43.75;;;13.00;;
41546;SDS011;27271;45.412;10.852;2024-01-10T08:35:57;36.65;;;12.38;;
41546;SDS011;27271;45.412;10.852;2024-01-10T08:39:21;33.42;;;12.50;;
41546;SDS011;27271;45.412;10.852;2024-01-10T08:42:49;34.30;;;12.95;;
41546;SDS011;27271;45.412;10.852;2024-01-10T08:46:11;32.70;;;12.57;;
41546;SDS011;27271;45.412;10.852;2024-01-10T08:49:34;36.30;;;13.93;;
41546;SDS011;27271;45.412;10.852;2024-01-10T08:52:56;32.50;;;12.50;;
41546;SDS011;27271;45.412;10.852;2024-01-10T08:56:18;29.38;;;13.45;;
41546;SDS011;27271;45.412;10.852;2024-01-10T08:59:41;33.50;;;13.30;;
41546;SDS011;27271;45.412;10.852;2024-01-10T09:03:04;33.83;;;13.32;;
41546;SDS011;27271;45.412;10.852;2024-01-10T09:06:29;37.83;;;14.52;;
41546;SDS011;27271;45.412;10.852;2024-01-10T09:09:55;30.63;;;13.70;;
41546;SDS011;27271;45.412;10.852;2024-01-10T09:13:17;42.38;;;15.20;;
41546;SDS011;27271;45.412;10.852;2024-01-10T09:16:39;36.50;;;15.60;;
41546;SDS011;27271;45.412;10.852;2024-01-10T09:20:01;39.28;;;16.70;;
41546;SDS011;27271;45.412;10.852;2024-01-10T09:23:25;39.28;;;16.23;;
41546;SDS011;27271;45.412;10.852;2024-01-10T09:26:48;38.03;;;15.73;;
41546;SDS011;27271;45.412;10.852;2024-01-10T09:30:11;38.85;;;16.05;;
41546;SDS011;27271;45.412;10.852;2024-01-10T09:33:33;40.45;;;15.85;;
41546;SDS011;27271;45.412;10.852;2024-01-10T09:36:56;36.03;;;16.17;;
41546;SDS011;27271;45.412;10.852;2024-01-10T09:40:18;38.08;;;14.43;;
41546;SDS011;27271;45.412;10.852;2024-01-10T09:43:42;42.58;;;15.35;;
41546;SDS011;27271;45.412;10.852;2024-01-10T09:47:14;37.17;;;14.27;;
41546;SDS011;27271;45.412;10.852;2024-01-10T09:50:41;26.27;;;11.50;;
41546;SDS011;27271;45.412;10.852;2024-01-10T09:54:10;28.20;;;12.10;;
41546;SDS011;27271;45.412;10.852;2024-01-10T09:57:32;25.73;;;12.02;;
41546;SDS011;27271;45.412;10.852;2024-01-10T10:00:58;29.73;;;11.30;;
41546;SDS011;27271;45.412;10.852;2024-01-10T10:04:22;24.45;;;12.25;;
41546;SDS011;27271;45.412;10.852;2024-01-10T10:07:46;27.63;;;11.73;;
41546;SDS011;27271;45.412;10.852;2024-01-10T10:11:13;27.25;;;12.77;;
41546;SDS011;27271;45.412;10.852;2024-01-10T10:14:37;26.60;;;10.70;;
41546;SDS011;27271;45.412;10.852;2024-01-10T10:18:02;19.30;;;9.82;;
41546;SDS011;27271;45.412;10.852;2024-01-10T10:21:46;23.48;;;9.60;;
41546;SDS011;27271;45.412;10.852;2024-01-10T10:25:08;18.60;;;9.60;;
41546;SDS011;27271;45.412;10.852;2024-01-10T10:28:31;17.85;;;7.63;;
41546;SDS011;27271;45.412;10.852;2024-01-10T10:32:23;16.48;;;8.25;;
41546;SDS011;27271;45.412;10.852;2024-01-10T10:35:46;18.42;;;7.78;;
41546;SDS011;27271;45.412;10.852;2024-01-10T10:39:21;21.63;;;7.57;;
41546;SDS011;27271;45.412;10.852;2024-01-10T10:42:44;15.52;;;7.85;;
41546;SDS011;27271;45.412;10.852;2024-01-10T10:46:09;16.80;;;8.23;;
41546;SDS011;27271;45.412;10.852;2024-01-10T10:49:34;19.05;;;6.97;;
41546;SDS011;27271;45.412;10.852;2024-01-10T10:52:56;17.40;;;7.47;;
41546;SDS011;27271;45.412;10.852;2024-01-10T10:56:19;15.00;;;6.60;;
41546;SDS011;27271;45.412;10.852;2024-01-10T10:59:41;12.35;;;5.75;;
41546;SDS011;27271;45.412;10.852;2024-01-10T11:03:04;18.25;;;6.65;;
41546;SDS011;27271;45.412;10.852;2024-01-10T11:06:28;13.68;;;6.00;;
41546;SDS011;27271;45.412;10.852;2024-01-10T11:09:52;13.07;;;6.55;;
41546;SDS011;27271;45.412;10.852;2024-01-10T11:13:33;13.93;;;6.53;;
41546;SDS011;27271;45.412;10.852;2024-01-10T11:21:13;12.88;;;6.25;;
41546;SDS011;27271;45.412;10.852;2024-01-10T11:24:47;14.85;;;6.68;;
41546;SDS011;27271;45.412;10.852;2024-01-10T11:28:11;13.40;;;7.05;;
41546;SDS011;27271;45.412;10.852;2024-01-10T11:31:34;16.95;;;7.18;;
41546;SDS011;27271;45.412;10.852;2024-01-10T11:35:00;16.10;;;7.90;;
41546;SDS011;27271;45.412;10.852;2024-01-10T11:38:49;15.70;;;7.95;;
41546;SDS011;27271;45.412;10.852;2024-01-10T11:42:40;14.93;;;7.75;;
41546;SDS011;27271;45.412;10.852;2024-01-10T11:46:10;17.27;;;9.13;;
41546;SDS011;27271;45.412;10.852;2024-01-10T11:49:53;24.05;;;10.20;;
41546;SDS011;27271;45.412;10.852;2024-01-10T11:53:37;17.13;;;8.60;;
41546;SDS011;27271;45.412;10.852;2024-01-10T11:57:12;16.65;;;8.13;;
41546;SDS011;27271;45.412;10.852;2024-01-10T12:00:46;19.98;;;8.95;;
41546;SDS011;27271;45.412;10.852;2024-01-10T12:04:10;18.80;;;8.85;;
41546;SDS011;27271;45.412;10.852;2024-01-10T12:07:44;20.25;;;8.95;;
41546;SDS011;27271;45.412;10.852;2024-01-10T12:11:11;23.45;;;9.27;;
41546;SDS011;27271;45.412;10.852;2024-01-10T12:14:34;16.27;;;8.57;;
41546;SDS011;27271;45.412;10.852;2024-01-10T12:17:56;22.92;;;9.05;;
41546;SDS011;27271;45.412;10.852;2024-01-10T12:21:19;15.68;;;8.70;;
41546;SDS011;27271;45.412;10.852;2024-01-10T12:24:47;21.20;;;9.18;;
41546;SDS011;27271;45.412;10.852;2024-01-10T12:28:17;16.77;;;9.02;;
41546;SDS011;27271;45.412;10.852;2024-01-10T12:31:39;22.70;;;9.95;;
41546;SDS011;27271;45.412;10.852;2024-01-10T12:35:02;20.55;;;10.20;;
41546;SDS011;27271;45.412;10.852;2024-01-10T12:38:27;22.95;;;10.07;;
41546;SDS011;27271;45.412;10.852;2024-01-10T12:41:50;18.52;;;9.75;;
41546;SDS011;27271;45.412;10.852;2024-01-10T12:45:22;24.40;;;10.27;;
41546;SDS011;27271;45.412;10.852;2024-01-10T12:48:45;20.70;;;10.68;;
41546;SDS011;27271;45.412;10.852;2024-01-10T12:52:19;15.80;;;7.50;;
41546;SDS011;27271;45.412;10.852;2024-01-10T12:55:45;9.85;;;5.97;;
41546;SDS011;27271;45.412;10.852;2024-01-10T12:59:07;12.02;;;5.72;;
41546;SDS011;27271;45.412;10.852;2024-01-10T13:02:31;14.10;;;6.63;;
41546;SDS011;27271;45.412;10.852;2024-01-10T13:05:56;13.35;;;6.13;;
41546;SDS011;27271;45.412;10.852;2024-01-10T13:09:19;12.07;;;6.05;;
41546;SDS011;27271;45.412;10.852;2024-01-10T13:12:42;13.68;;;6.28;;
41546;SDS011;27271;45.412;10.852;2024-01-10T13:16:07;11.88;;;6.20;;
41546;SDS011;27271;45.412;10.852;2024-01-10T13:19:32;13.55;;;6.15;;
41546;SDS011;27271;45.412;10.852;2024-01-10T13:22:54;14.38;;;6.40;;
41546;SDS011;27271;45.412;10.852;2024-01-10T13:26:17;14.38;;;6.43;;
41546;SDS011;27271;45.412;10.852;2024-01-10T13:29:40;13.07;;;6.88;;
41546;SDS011;27271;45.412;10.852;2024-01-10T13:33:02;14.57;;;6.15;;
41546;SDS011;27271;45.412;10.852;2024-01-10T13:36:26;15.45;;;6.15;;
41546;SDS011;27271;45.412;10.852;2024-01-10T13:39:48;18.13;;;6.97;;
41546;SDS011;27271;45.412;10.852;2024-01-10T13:43:10;12.45;;;5.35;;
41546;SDS011;27271;45.412;10.852;2024-01-10T13:46:32;12.65;;;5.72;;
41546;SDS011;27271;45.412;10.852;2024-01-10T13:49:58;12.02;;;4.88;;
41546;SDS011;27271;45.412;10.852;2024-01-10T13:53:22;12.40;;;5.85;;
41546;SDS011;27271;45.412;10.852;2024-01-10T13:56:44;15.55;;;6.70;;
41546;SDS011;27271;45.412;10.852;2024-01-10T14:00:07;38.58;;;11.18;;
41546;SDS011;27271;45.412;10.852;2024-01-10T14:03:33;15.25;;;7.22;;
41546;SDS011;27271;45.412;10.852;2024-01-10T14:06:55;11.30;;;6.13;;
41546;SDS011;27271;45.412;10.852;2024-01-10T14:10:20;12.73;;;6.05;;
41546;SDS011;27271;45.412;10.852;2024-01-10T14:13:42;12.98;;;5.72;;
41546;SDS011;27271;45.412;10.852;2024-01-10T14:17:04;13.68;;;5.85;;
41546;SDS011;27271;45.412;10.852;2024-01-10T14:20:33;14.63;;;5.75;;
41546;SDS011;27271;45.412;10.852;2024-01-10T14:24:16;10.60;;;5.78;;
41546;SDS011;27271;45.412;10.852;2024-01-10T14:27:38;13.60;;;6.03;;
41546;SDS011;27271;45.412;10.852;2024-01-10T14:31:00;15.07;;;6.35;;
41546;SDS011;27271;45.412;10.852;2024-01-10T14:34:39;14.07;;;6.65;;
41546;SDS011;27271;45.412;10.852;2024-01-10T14:38:02;10.90;;;5.68;;
41546;SDS011;27271;45.412;10.852;2024-01-10T14:41:29;13.57;;;5.93;;
41546;SDS011;27271;45.412;10.852;2024-01-10T14:44:51;11.52;;;5.90;;
41546;SDS011;27271;45.412;10.852;2024-01-10T14:48:13;13.90;;;6.50;;
41546;SDS011;27271;45.412;10.852;2024-01-10T14:51:36;13.00;;;6.45;;
41546;SDS011;27271;45.412;10.852;2024-01-10T14:54:58;14.60;;;5.90;;
41546;SDS011;27271;45.412;10.852;2024-01-10T14:58:20;15.20;;;7.30;;
41546;SDS011;27271;45.412;10.852;2024-01-10T15:01:44;18.27;;;6.95;;
41546;SDS011;27271;45.412;10.852;2024-01-10T15:05:07;20.33;;;8.02;;
41546;SDS011;27271;45.412;10.852;2024-01-10T15:08:32;14.60;;;6.25;;
41546;SDS011;27271;45.412;10.852;2024-01-10T15:11:57;11.32;;;6.13;;
41546;SDS011;27271;45.412;10.852;2024-01-10T15:15:24;13.05;;;5.97;;
41546;SDS011;27271;45.412;10.852;2024-01-10T15:18:46;15.95;;;7.13;;
41546;SDS011;27271;45.412;10.852;2024-01-10T15:22:09;16.48;;;7.63;;
41546;SDS011;27271;45.412;10.852;2024-01-10T15:25:31;11.45;;;7.03;;
41546;SDS011;27271;45.412;10.852;2024-01-10T15:28:53;20.73;;;7.95;;
41546;SDS011;27271;45.412;10.852;2024-01-10T15:32:16;16.42;;;7.13;;
41546;SDS011;27271;45.412;10.852;2024-01-10T15:35:38;15.05;;;7.13;;
41546;SDS011;27271;45.412;10.852;2024-01-10T15:39:01;15.48;;;6.38;;
41546;SDS011;27271;45.412;10.852;2024-01-10T15:42:26;16.45;;;7.32;;
41546;SDS011;27271;45.412;10.852;2024-01-10T15:45:51;16.67;;;6.38;;
41546;SDS011;27271;45.412;10.852;2024-01-10T15:49:13;16.80;;;6.88;;
41546;SDS011;27271;45.412;10.852;2024-01-10T15:52:37;19.60;;;7.70;;
41546;SDS011;27271;45.412;10.852;2024-01-10T15:55:59;18.77;;;8.35;;
41546;SDS011;27271;45.412;10.852;2024-01-10T15:59:21;16.98;;;8.05;;
41546;SDS011;27271;45.412;10.852;2024-01-10T16:02:44;14.10;;;7.60;;
41546;SDS011;27271;45.412;10.852;2024-01-10T16:06:07;17.52;;;8.50;;
41546;SDS011;27271;45.412;10.852;2024-01-10T16:09:30;20.80;;;8.10;;
41546;SDS011;27271;45.412;10.852;2024-01-10T16:12:53;18.05;;;7.75;;
41546;SDS011;27271;45.412;10.852;2024-01-10T16:16:21;19.95;;;8.45;;
41546;SDS011;27271;45.412;10.852;2024-01-10T16:19:44;17.08;;;8.40;;
41546;SDS011;27271;45.412;10.852;2024-01-10T16:23:06;17.10;;;7.75;;
41546;SDS011;27271;45.412;10.852;2024-01-10T16:26:28;18.63;;;8.27;;
41546;SDS011;27271;45.412;10.852;2024-01-10T16:29:51;19.40;;;8.07;;
41546;SDS011;27271;45.412;10.852;2024-01-10T16:33:13;19.80;;;8.30;;
41546;SDS011;27271;45.412;10.852;2024-01-10T16:36:35;20.08;;;8.23;;
41546;SDS011;27271;45.412;10.852;2024-01-10T16:39:57;19.65;;;8.32;;
41546;SDS011;27271;45.412;10.852;2024-01-10T16:43:20;19.30;;;9.25;;
41546;SDS011;27271;45.412;10.852;2024-01-10T16:46:42;18.00;;;8.43;;
41546;SDS011;27271;45.412;10.852;2024-01-10T16:50:05;17.60;;;8.00;;
41546;SDS011;27271;45.412;10.852;2024-01-10T16:53:27;19.95;;;8.80;;
41546;SDS011;27271;45.412;10.852;2024-01-10T16:56:52;17.13;;;7.95;;
41546;SDS011;27271;45.412;10.852;2024-01-10T17:00:17;25.80;;;8.73;;
41546;SDS011;27271;45.412;10.852;2024-01-10T17:03:40;21.25;;;9.50;;
41546;SDS011;27271;45.412;10.852;2024-01-10T17:07:02;21.70;;;8.68;;
41546;SDS011;27271;45.412;10.852;2024-01-10T17:10:25;20.40;;;8.55;;
41546;SDS011;27271;45.412;10.852;2024-01-10T17:13:47;24.10;;;10.18;;
41546;SDS011;27271;45.412;10.852;2024-01-10T17:17:12;19.27;;;9.55;;
41546;SDS011;27271;45.412;10.852;2024-01-10T17:20:35;20.13;;;9.00;;
41546;SDS011;27271;45.412;10.852;2024-01-10T17:23:57;27.70;;;8.55;;
41546;SDS011;27271;45.412;10.852;2024-01-10T17:27:20;30.63;;;10.65;;
41546;SDS011;27271;45.412;10.852;2024-01-10T17:30:42;25.25;;;10.68;;
41546;SDS011;27271;45.412;10.852;2024-01-10T17:34:04;21.48;;;10.18;;
41546;SDS011;27271;45.412;10.852;2024-01-10T17:37:27;24.67;;;10.98;;
41546;SDS011;27271;45.412;10.852;2024-01-10T17:40:49;22.63;;;9.95;;
41546;SDS011;27271;45.412;10.852;2024-01-10T17:44:13;21.40;;;9.98;;
41546;SDS011;27271;45.412;10.852;2024-01-10T17:47:36;23.95;;;10.38;;
41546;SDS011;27271;45.412;10.852;2024-01-10T17:50:58;27.85;;;11.82;;
41546;SDS011;27271;45.412;10.852;2024-01-10T17:54:23;36.00;;;14.50;;
41546;SDS011;27271;45.412;10.852;2024-01-10T17:57:45;36.13;;;14.10;;
41546;SDS011;27271;45.412;10.852;2024-01-10T18:01:13;24.85;;;11.73;;
41546;SDS011;27271;45.412;10.852;2024-01-10T18:04:43;33.92;;;12.95;;
41546;SDS011;27271;45.412;10.852;2024-01-10T18:08:05;42.58;;;14.15;;
41546;SDS011;27271;45.412;10.852;2024-01-10T18:11:27;31.85;;;14.32;;
41546;SDS011;27271;45.412;10.852;2024-01-10T18:14:57;29.23;;;12.90;;
41546;SDS011;27271;45.412;10.852;2024-01-10T18:21:42;27.83;;;13.77;;
41546;SDS011;27271;45.412;10.852;2024-01-10T18:25:04;26.27;;;12.55;;
41546;SDS011;27271;45.412;10.852;2024-01-10T18:28:27;31.30;;;12.93;;
41546;SDS011;27271;45.412;10.852;2024-01-10T18:31:50;29.02;;;11.93;;
41546;SDS011;27271;45.412;10.852;2024-01-10T18:35:14;32.65;;;13.38;;
41546;SDS011;27271;45.412;10.852;2024-01-10T18:38:37;30.40;;;13.52;;
41546;SDS011;27271;45.412;10.852;2024-01-10T18:41:59;26.48;;;10.63;;
41546;SDS011;27271;45.412;10.852;2024-01-10T18:45:21;28.10;;;12.45;;
41546;SDS011;27271;45.412;10.852;2024-01-10T18:48:44;27.33;;;12.88;;
41546;SDS011;27271;45.412;10.852;2024-01-10T18:52:24;30.75;;;13.40;;
41546;SDS011;27271;45.412;10.852;2024-01-10T18:55:47;41.50;;;17.17;;
41546;SDS011;27271;45.412;10.852;2024-01-10T18:59:09;48.33;;;18.30;;
41546;SDS011;27271;45.412;10.852;2024-01-10T19:02:32;37.72;;;16.65;;
41546;SDS011;27271;45.412;10.852;2024-01-10T19:05:54;43.33;;;16.10;;
41546;SDS011;27271;45.412;10.852;2024-01-10T19:09:16;38.80;;;14.95;;
41546;SDS011;27271;45.412;10.852;2024-01-10T19:12:41;33.50;;;14.57;;
41546;SDS011;27271;45.412;10.852;2024-01-10T19:16:04;32.03;;;15.10;;
41546;SDS011;27271;45.412;10.852;2024-01-10T19:19:31;28.95;;;13.85;;
41546;SDS011;27271;45.412;10.852;2024-01-10T19:22:58;39.40;;;15.68;;
41546;SDS011;27271;45.412;10.852;2024-01-10T19:26:26;42.25;;;17.67;;
41546;SDS011;27271;45.412;10.852;2024-01-10T19:29:48;47.67;;;20.60;;
41546;SDS011;27271;45.412;10.852;2024-01-10T19:33:10;60.97;;;22.95;;
41546;SDS011;27271;45.412;10.852;2024-01-10T19:36:32;36.97;;;16.65;;
41546;SDS011;27271;45.412;10.852;2024-01-10T19:39:57;36.28;;;15.55;;
41546;SDS011;27271;45.412;10.852;2024-01-10T19:43:21;48.03;;;16.45;;
41546;SDS011;27271;45.412;10.852;2024-01-10T19:46:49;38.95;;;15.55;;
41546;SDS011;27271;45.412;10.852;2024-01-10T19:50:16;30.95;;;14.93;;
41546;SDS011;27271;45.412;10.852;2024-01-10T19:53:44;37.15;;;15.63;;
41546;SDS011;27271;45.412;10.852;2024-01-10T19:57:21;52.28;;;24.10;;
41546;SDS011;27271;45.412;10.852;2024-01-10T20:00:52;52.22;;;18.13;;
41546;SDS011;27271;45.412;10.852;2024-01-10T20:04:15;30.33;;;14.52;;
41546;SDS011;27271;45.412;10.852;2024-01-10T20:07:37;41.35;;;15.90;;
41546;SDS011;27271;45.412;10.852;2024-01-10T20:10:59;41.25;;;19.05;;
41546;SDS011;27271;45.412;10.852;2024-01-10T20:14:21;46.28;;;18.35;;
41546;SDS011;27271;45.412;10.852;2024-01-10T20:17:43;40.83;;;15.65;;
41546;SDS011;27271;45.412;10.852;2024-01-10T20:21:13;35.95;;;16.40;;
41546;SDS011;27271;45.412;10.852;2024-01-10T20:24:35;43.67;;;16.83;;
41546;SDS011;27271;45.412;10.852;2024-01-10T20:28:03;36.00;;;16.00;;
41546;SDS011;27271;45.412;10.852;2024-01-10T20:31:26;34.17;;;17.58;;
41546;SDS011;27271;45.412;10.852;2024-01-10T20:34:49;31.75;;;14.85;;
41546;SDS011;27271;45.412;10.852;2024-01-10T20:38:16;42.30;;;16.33;;
41546;SDS011;27271;45.412;10.852;2024-01-10T20:41:38;40.80;;;16.58;;
41546;SDS011;27271;45.412;10.852;2024-01-10T20:45:00;36.05;;;16.48;;
41546;SDS011;27271;45.412;10.852;2024-01-10T20:48:24;38.40;;;16.33;;
41546;SDS011;27271;45.412;10.852;2024-01-10T20:51:46;38.83;;;15.77;;
41546;SDS011;27271;45.412;10.852;2024-01-10T20:55:09;45.97;;;19.40;;
41546;SDS011;27271;45.412;10.852;2024-01-10T20:58:34;45.05;;;18.77;;
41546;SDS011;27271;45.412;10.852;2024-01-10T21:01:59;42.10;;;17.42;;
41546;SDS011;27271;45.412;10.852;2024-01-10T21:05:21;49.00;;;21.75;;
41546;SDS011;27271;45.412;10.852;2024-01-10T21:08:44;54.28;;;22.50;;
41546;SDS011;27271;45.412;10.852;2024-01-10T21:12:06;49.97;;;20.38;;
41546;SDS011;27271;45.412;10.852;2024-01-10T21:15:33;54.95;;;21.25;;
41546;SDS011;27271;45.412;10.852;2024-01-10T21:18:55;49.65;;;19.80;;
41546;SDS011;27271;45.412;10.852;2024-01-10T21:22:19;47.60;;;20.02;;
41546;SDS011;27271;45.412;10.852;2024-01-10T21:25:44;47.67;;;19.90;;
41546;SDS011;27271;45.412;10.852;2024-01-10T21:29:06;43.50;;;17.20;;
41546;SDS011;27271;45.412;10.852;2024-01-10T21:32:28;37.45;;;16.90;;
41546;SDS011;27271;45.412;10.852;2024-01-10T21:35:53;34.15;;;14.48;;
41546;SDS011;27271;45.412;10.852;2024-01-10T21:39:16;45.72;;;17.02;;
41546;SDS011;27271;45.412;10.852;2024-01-10T21:42:39;38.78;;;17.42;;
41546;SDS011;27271;45.412;10.852;2024-01-10T21:46:04;32.92;;;17.27;;
41546;SDS011;27271;45.412;10.852;2024-01-10T21:49:26;49.30;;;18.50;;
41546;SDS011;27271;45.412;10.852;2024-01-10T21:52:51;41.85;;;18.13;;
41546;SDS011;27271;45.412;10.852;2024-01-10T21:56:13;44.83;;;18.45;;
41546;SDS011;27271;45.412;10.852;2024-01-10T21:59:38;43.28;;;16.98;;
41546;SDS011;27271;45.412;10.852;2024-01-10T22:03:06;46.60;;;16.00;;
41546;SDS011;27271;45.412;10.852;2024-01-10T22:06:34;39.58;;;16.38;;
41546;SDS011;27271;45.412;10.852;2024-01-10T22:10:01;42.33;;;16.95;;
41546;SDS011;27271;45.412;10.852;2024-01-10T22:13:23;37.38;;;16.75;;
41546;SDS011;27271;45.412;10.852;2024-01-10T22:16:45;45.92;;;17.27;;
41546;SDS011;27271;45.412;10.852;2024-01-10T22:20:11;42.00;;;16.02;;
41546;SDS011;27271;45.412;10.852;2024-01-10T22:23:34;35.70;;;16.92;;
41546;SDS011;27271;45.412;10.852;2024-01-10T22:26:56;42.20;;;17.30;;
41546;SDS011;27271;45.412;10.852;2024-01-10T22:30:23;39.15;;;16.88;;
41546;SDS011;27271;45.412;10.852;2024-01-10T22:34:15;36.30;;;16.15;;
41546;SDS011;27271;45.412;10.852;2024-01-10T22:37:39;45.40;;;17.25;;
41546;SDS011;27271;45.412;10.852;2024-01-10T22:41:01;43.15;;;17.27;;
41546;SDS011;27271;45.412;10.852;2024-01-10T22:44:24;44.20;;;17.70;;
41546;SDS011;27271;45.412;10.852;2024-01-10T22:47:49;36.60;;;17.25;;
41546;SDS011;27271;45.412;10.852;2024-01-10T22:51:11;37.70;;;16.33;;
41546;SDS011;27271;45.412;10.852;2024-01-10T22:54:33;36.22;;;15.95;;
41546;SDS011;27271;45.412;10.852;2024-01-10T22:57:56;43.78;;;16.60;;
41546;SDS011;27271;45.412;10.852;2024-01-10T23:01:19;49.05;;;16.48;;
41546;SDS011;27271;45.412;10.852;2024-01-10T23:04:47;45.58;;;17.52;;
41546;SDS011;27271;45.412;10.852;2024-01-10T23:08:09;38.97;;;14.65;;
41546;SDS011;27271;45.412;10.852;2024-01-10T23:11:38;38.23;;;15.23;;
41546;SDS011;27271;45.412;10.852;2024-01-10T23:15:03;35.35;;;15.18;;
41546;SDS011;27271;45.412;10.852;2024-01-10T23:18:26;37.17;;;14.25;;
41546;SDS011;27271;45.412;10.852;2024-01-10T23:21:48;39.90;;;15.75;;
41546;SDS011;27271;45.412;10.852;2024-01-10T23:25:14;42.45;;;15.82;;
41546;SDS011;27271;45.412;10.852;2024-01-10T23:28:36;35.90;;;14.63;;
